createdAt,value
2023-05-04T00:02:14.581Z,15.15
2023-05-04T00:04:43.103Z,14.25
2023-05-04T00:07:10.482Z,15.23
2023-05-04T00:09:45.064Z,15.25
2023-05-04T00:12:12.497Z,15.38
2023-05-04T00:14:40.061Z,14.18
2023-05-04T00:17:08.222Z,16.10
2023-05-04T00:19:40.692Z,17.00
2023-05-04T00:22:08.500Z,15.05
2023-05-04T00:24:36.022Z,15.55
2023-05-04T00:27:10.564Z,15.52
2023-05-04T00:29:39.041Z,14.93
2023-05-04T00:32:06.723Z,15.43
2023-05-04T00:34:40.150Z,15.30
2023-05-04T00:37:07.628Z,13.95
2023-05-04T00:39:37.834Z,14.23
2023-05-04T00:42:04.999Z,13.88
2023-05-04T00:44:34.834Z,14.90
2023-05-04T00:47:03.830Z,14.18
2023-05-04T00:49:37.152Z,13.98
2023-05-04T00:52:05.643Z,14.63
2023-05-04T00:54:34.720Z,14.65
2023-05-04T00:57:08.502Z,14.82
2023-05-04T00:59:36.726Z,14.60
2023-05-04T01:02:04.094Z,15.10
2023-05-04T01:04:31.889Z,15.82
2023-05-04T01:07:11.006Z,15.07
2023-05-04T01:09:42.052Z,14.32
2023-05-04T01:12:38.842Z,14.80
2023-05-04T01:15:06.966Z,16.73
2023-05-04T01:17:34.042Z,16.27
2023-05-04T01:20:02.721Z,16.25
2023-05-04T01:22:30.433Z,13.75
2023-05-04T01:24:59.053Z,13.85
2023-05-04T01:27:36.635Z,13.52
2023-05-04T01:30:15.198Z,15.05
2023-05-04T01:32:44.253Z,12.75
2023-05-04T01:35:12.785Z,13.65
2023-05-04T01:37:46.423Z,13.57
2023-05-04T01:40:16.124Z,13.55
2023-05-04T01:42:45.500Z,13.77
2023-05-04T01:45:14.989Z,13.10
2023-05-04T01:47:42.459Z,13.32
2023-05-04T01:50:10.064Z,13.20
2023-05-04T01:52:37.286Z,13.88
2023-05-04T01:55:04.941Z,12.55
2023-05-04T01:57:32.249Z,12.98
2023-05-04T01:59:59.806Z,12.90
2023-05-04T02:02:27.202Z,12.02
2023-05-04T02:04:54.670Z,13.15
2023-05-04T02:07:22.035Z,12.30
2023-05-04T02:09:49.546Z,12.90
2023-05-04T02:12:18.128Z,12.85
2023-05-04T02:14:45.705Z,12.70
2023-05-04T02:17:12.840Z,12.18
2023-05-04T02:19:40.363Z,13.52
2023-05-04T02:22:07.837Z,12.70
2023-05-04T02:24:36.297Z,13.15
2023-05-04T02:27:04.793Z,12.20
2023-05-04T02:29:34.363Z,12.68
2023-05-04T02:32:01.963Z,12.32
2023-05-04T02:34:30.327Z,11.57
2023-05-04T02:36:57.796Z,14.70
2023-05-04T02:39:26.214Z,12.38
2023-05-04T02:41:53.677Z,13.23
2023-05-04T02:44:21.079Z,12.57
2023-05-04T02:46:49.578Z,12.63
2023-05-04T02:49:18.049Z,12.60
2023-05-04T02:51:47.683Z,12.23
2023-05-04T02:54:15.020Z,11.93
2023-05-04T02:56:42.465Z,11.40
2023-05-04T02:59:09.910Z,12.00
2023-05-04T03:01:37.428Z,12.20
2023-05-04T03:04:06.323Z,13.02
2023-05-04T03:06:34.155Z,13.07
2023-05-04T03:09:01.258Z,13.98
2023-05-04T03:11:28.716Z,13.27
2023-05-04T03:13:56.359Z,12.05
2023-05-04T03:16:24.825Z,12.85
2023-05-04T03:18:58.261Z,13.05
2023-05-04T03:23:52.640Z,11.48
2023-05-04T03:26:20.152Z,11.38
2023-05-04T03:28:48.609Z,12.80
2023-05-04T03:31:16.095Z,12.75
2023-05-04T03:33:43.623Z,11.55
2023-05-04T03:36:12.010Z,11.25
2023-05-04T03:38:41.899Z,11.63
2023-05-04T03:41:11.539Z,11.90
2023-05-04T03:43:39.185Z,12.20
2023-05-04T03:46:13.413Z,13.27
2023-05-04T03:48:41.114Z,13.75
2023-05-04T03:51:08.625Z,13.73
2023-05-04T03:53:36.158Z,11.82
2023-05-04T03:56:03.991Z,17.00
2023-05-04T03:58:31.487Z,12.70
2023-05-04T04:00:58.828Z,13.18
2023-05-04T04:03:26.446Z,13.43
2023-05-04T04:05:54.780Z,13.52
2023-05-04T04:08:22.311Z,15.15
2023-05-04T04:10:49.708Z,16.70
2023-05-04T04:13:17.186Z,18.25
2023-05-04T04:15:45.919Z,16.70
2023-05-04T04:18:15.193Z,16.50
2023-05-04T04:20:42.760Z,16.83
2023-05-04T04:23:10.257Z,16.35
2023-05-04T04:25:38.169Z,17.67
2023-05-04T04:28:05.616Z,17.10
2023-05-04T04:30:33.061Z,18.25
2023-05-04T04:33:00.698Z,18.48
2023-05-04T04:35:29.014Z,17.30
2023-05-04T04:37:56.519Z,15.75
2023-05-04T04:40:23.989Z,15.25
2023-05-04T04:42:52.682Z,14.13
2023-05-04T04:45:20.830Z,13.52
2023-05-04T04:47:49.279Z,13.73
2023-05-04T04:50:16.385Z,14.52
2023-05-04T04:52:44.006Z,13.98
2023-05-04T04:55:13.669Z,14.15
2023-05-04T04:57:41.861Z,14.55
2023-05-04T05:00:14.679Z,14.70
2023-05-04T05:02:43.848Z,14.35
2023-05-04T05:05:13.319Z,16.15
2023-05-04T05:07:40.912Z,16.83
2023-05-04T05:10:15.193Z,16.50
2023-05-04T05:12:43.645Z,41.22
2023-05-04T05:15:11.149Z,17.65
2023-05-04T05:17:38.295Z,31.90
2023-05-04T05:20:16.140Z,17.35
2023-05-04T05:22:43.693Z,17.80
2023-05-04T05:25:11.174Z,16.75
2023-05-04T05:27:38.554Z,17.02
2023-05-04T05:30:07.617Z,16.38
2023-05-04T05:32:38.914Z,15.98
2023-05-04T05:35:06.862Z,16.42
2023-05-04T05:37:34.038Z,15.75
2023-05-04T05:40:14.372Z,16.00
2023-05-04T05:42:43.260Z,19.65
2023-05-04T05:45:11.209Z,21.77
2023-05-04T05:47:38.756Z,15.98
2023-05-04T05:50:08.145Z,15.77
2023-05-04T05:52:35.571Z,15.05
2023-05-04T05:55:03.231Z,15.20
2023-05-04T05:57:31.861Z,13.95
2023-05-04T05:59:59.052Z,14.93
2023-05-04T06:02:28.548Z,13.68
2023-05-04T06:04:56.023Z,14.02
2023-05-04T06:07:24.051Z,13.70
2023-05-04T06:09:51.673Z,13.70
2023-05-04T06:12:22.986Z,14.20
2023-05-04T06:14:50.407Z,13.30
2023-05-04T06:17:18.952Z,14.00
2023-05-04T06:19:48.073Z,14.95
2023-05-04T06:22:23.048Z,14.80
2023-05-04T06:27:17.361Z,15.00
2023-05-04T06:29:44.780Z,14.75
2023-05-04T06:32:12.495Z,13.98
2023-05-04T06:34:39.676Z,13.13
2023-05-04T06:37:07.188Z,13.00
2023-05-04T06:39:34.743Z,11.15
2023-05-04T06:42:02.473Z,11.55
2023-05-04T06:44:29.721Z,10.82
2023-05-04T06:46:57.027Z,10.80
2023-05-04T06:49:24.518Z,9.77
2023-05-04T06:51:51.902Z,9.63
2023-05-04T06:54:19.401Z,10.15
2023-05-04T06:56:46.991Z,9.13
2023-05-04T06:59:14.323Z,9.57
2023-05-04T07:01:41.869Z,9.30
2023-05-04T07:04:09.423Z,9.52
2023-05-04T07:06:37.508Z,9.38
2023-05-04T07:09:10.394Z,8.50
2023-05-04T07:11:37.712Z,9.65
2023-05-04T07:14:05.243Z,8.98
2023-05-04T07:16:33.366Z,8.40
2023-05-04T07:19:07.352Z,7.72
2023-05-04T07:21:34.855Z,8.65
2023-05-04T07:24:02.209Z,7.47
2023-05-04T07:26:29.681Z,5.90
2023-05-04T07:28:57.107Z,5.50
2023-05-04T07:31:26.626Z,5.25
2023-05-04T07:33:55.582Z,6.00
2023-05-04T07:36:25.208Z,5.85
2023-05-04T07:38:52.770Z,5.88
2023-05-04T07:41:21.202Z,5.03
2023-05-04T07:43:48.588Z,4.78
2023-05-04T07:46:16.809Z,4.28
2023-05-04T07:48:44.464Z,4.13
2023-05-04T07:51:15.861Z,3.60
2023-05-04T07:53:44.136Z,4.22
2023-05-04T07:56:13.227Z,4.32
2023-05-04T07:58:40.802Z,4.18
2023-05-04T08:01:08.726Z,4.20
2023-05-04T08:03:36.851Z,4.47
2023-05-04T08:06:04.346Z,5.00
2023-05-04T08:08:31.916Z,3.70
2023-05-04T08:11:15.794Z,3.75
2023-05-04T08:13:48.149Z,3.30
2023-05-04T08:16:15.923Z,2.40
2023-05-04T08:18:43.830Z,3.30
2023-05-04T08:21:11.106Z,3.45
2023-05-04T08:23:38.962Z,2.80
2023-05-04T08:26:06.500Z,3.30
2023-05-04T08:28:40.687Z,3.60
2023-05-04T08:31:08.266Z,3.50
2023-05-04T08:33:35.571Z,3.33
2023-05-04T08:36:04.580Z,3.90
2023-05-04T08:38:39.161Z,4.35
2023-05-04T08:41:07.583Z,4.57
2023-05-04T08:43:36.792Z,3.65
2023-05-04T08:46:07.011Z,3.85
2023-05-04T08:48:35.196Z,4.03
2023-05-04T08:51:04.838Z,3.50
2023-05-04T08:53:33.074Z,3.33
2023-05-04T08:56:04.692Z,3.80
2023-05-04T08:58:38.242Z,3.35
2023-05-04T09:01:07.967Z,3.65
2023-05-04T09:03:35.877Z,3.88
2023-05-04T09:06:10.233Z,3.95
2023-05-04T09:08:38.042Z,3.58
2023-05-04T09:11:06.289Z,3.78
2023-05-04T09:13:36.956Z,3.78
2023-05-04T09:16:04.698Z,3.97
2023-05-04T09:18:43.218Z,3.83
2023-05-04T09:21:11.790Z,3.20
2023-05-04T09:23:51.918Z,3.38
2023-05-04T09:26:31.623Z,3.88
2023-05-04T09:29:16.001Z,3.40
2023-05-04T09:31:56.668Z,3.60
2023-05-04T09:34:24.058Z,3.20
2023-05-04T09:37:02.254Z,3.13
2023-05-04T09:39:30.798Z,3.35
2023-05-04T09:41:59.198Z,3.53
2023-05-04T09:44:29.902Z,3.33
2023-05-04T09:46:58.960Z,3.20
2023-05-04T09:49:37.315Z,3.42
2023-05-04T09:52:06.260Z,3.10
2023-05-04T09:54:36.480Z,3.25
2023-05-04T09:57:15.795Z,3.17
2023-05-04T09:59:44.183Z,3.10
2023-05-04T10:02:22.644Z,2.80
2023-05-04T10:04:57.606Z,3.17
2023-05-04T10:07:25.292Z,2.80
2023-05-04T10:09:54.209Z,3.20
2023-05-04T10:12:21.452Z,2.97
2023-05-04T10:14:48.920Z,3.20
2023-05-04T10:17:41.183Z,3.67
2023-05-04T10:20:27.330Z,3.30
2023-05-04T10:23:09.847Z,3.15
2023-05-04T10:26:16.114Z,2.88
2023-05-04T10:29:07.151Z,3.45
2023-05-04T10:31:53.887Z,2.97
2023-05-04T10:34:35.417Z,3.30
2023-05-04T10:37:04.458Z,2.88
2023-05-04T10:39:34.480Z,3.65
2023-05-04T10:42:05.281Z,3.20
2023-05-04T10:44:34.521Z,2.70
2023-05-04T10:47:09.239Z,2.95
2023-05-04T10:49:36.761Z,2.88
2023-05-04T10:52:18.300Z,3.40
2023-05-04T10:54:47.244Z,3.20
2023-05-04T10:57:17.908Z,3.05
2023-05-04T10:59:56.787Z,3.30
2023-05-04T11:02:25.397Z,3.22
2023-05-04T11:05:07.390Z,3.42
2023-05-04T11:07:39.494Z,3.30
2023-05-04T11:10:09.945Z,3.33
2023-05-04T11:12:38.455Z,3.42
2023-05-04T11:15:08.743Z,3.50
2023-05-04T11:17:52.040Z,3.03
2023-05-04T11:20:27.296Z,3.38
2023-05-04T11:22:55.599Z,3.28
2023-05-04T11:25:30.125Z,3.08
2023-05-04T11:28:00.157Z,3.10
2023-05-04T11:30:34.950Z,3.10
2023-05-04T11:33:05.004Z,2.95
2023-05-04T11:35:39.011Z,2.85
2023-05-04T11:38:07.749Z,2.67
2023-05-04T11:40:41.213Z,3.13
2023-05-04T11:43:11.603Z,3.05
2023-05-04T11:45:41.224Z,3.38
2023-05-04T11:48:09.611Z,3.20
2023-05-04T11:50:38.226Z,3.17
2023-05-04T11:53:11.763Z,2.97
2023-05-04T11:55:39.261Z,3.10
2023-05-04T11:58:13.061Z,3.03
2023-05-04T12:00:47.451Z,3.70
2023-05-04T12:03:17.410Z,3.55
2023-05-04T12:05:50.965Z,3.05
2023-05-04T12:08:42.541Z,3.30
2023-05-04T12:11:16.761Z,3.00
2023-05-04T12:13:46.044Z,2.80
2023-05-04T12:16:18.442Z,3.22
2023-05-04T12:18:47.029Z,3.03
2023-05-04T12:21:15.468Z,2.80
2023-05-04T12:23:43.036Z,3.05
2023-05-04T12:26:12.249Z,3.90
2023-05-04T12:28:43.038Z,3.35
2023-05-04T12:31:10.467Z,2.90
2023-05-04T12:33:37.702Z,3.00
2023-05-04T12:36:12.825Z,2.90
2023-05-04T12:38:40.300Z,3.20
2023-05-04T12:41:11.129Z,3.40
2023-05-04T12:43:38.618Z,2.55
2023-05-04T12:46:07.835Z,3.17
2023-05-04T12:48:35.462Z,3.10
2023-05-04T12:51:04.799Z,3.58
2023-05-04T12:53:32.607Z,3.10
2023-05-04T12:56:01.738Z,3.03
2023-05-04T12:58:29.277Z,2.72
2023-05-04T13:00:58.153Z,3.50
2023-05-04T13:03:25.832Z,3.58
2023-05-04T13:06:06.210Z,4.38
2023-05-04T13:08:33.887Z,4.07
2023-05-04T13:11:02.502Z,3.10
2023-05-04T13:13:30.028Z,3.35
2023-05-04T13:15:57.674Z,3.42
2023-05-04T13:18:28.061Z,3.70
2023-05-04T13:20:56.304Z,3.92
2023-05-04T13:23:24.188Z,3.60
2023-05-04T13:25:52.342Z,3.63
2023-05-04T13:28:19.861Z,2.92
2023-05-04T13:30:47.191Z,3.63
2023-05-04T13:33:28.039Z,3.35
2023-05-04T13:35:58.540Z,3.33
2023-05-04T13:38:27.489Z,3.33
2023-05-04T13:40:56.392Z,3.65
2023-05-04T13:43:24.085Z,4.63
2023-05-04T13:45:51.715Z,3.50
2023-05-04T13:48:18.754Z,3.20
2023-05-04T13:50:46.389Z,3.80
2023-05-04T13:53:14.805Z,3.75
2023-05-04T13:55:42.142Z,3.45
2023-05-04T13:58:15.847Z,3.30
2023-05-04T14:00:48.944Z,3.45
2023-05-04T14:03:23.139Z,3.42
2023-05-04T14:05:51.874Z,3.67
2023-05-04T14:08:19.459Z,3.40
2023-05-04T14:10:47.192Z,3.65
2023-05-04T14:13:17.208Z,3.50
2023-05-04T14:15:45.615Z,3.80
2023-05-04T14:18:19.139Z,3.92
2023-05-04T14:23:16.616Z,3.60
2023-05-04T14:25:50.732Z,3.60
2023-05-04T14:28:19.281Z,3.28
2023-05-04T14:30:46.607Z,3.35
2023-05-04T14:33:14.042Z,3.50
2023-05-04T14:35:44.687Z,3.33
2023-05-04T14:38:13.610Z,2.95
2023-05-04T14:40:40.860Z,3.35
2023-05-04T14:43:08.481Z,2.97
2023-05-04T14:45:35.867Z,3.55
2023-05-04T14:48:03.421Z,3.10
2023-05-04T14:50:30.742Z,3.28
2023-05-04T14:52:58.278Z,3.22
2023-05-04T14:55:25.741Z,3.10
2023-05-04T14:57:53.211Z,3.13
2023-05-04T15:00:20.831Z,3.08
2023-05-04T15:02:48.171Z,2.65
2023-05-04T15:05:21.587Z,3.00
2023-05-04T15:07:49.091Z,3.10
2023-05-04T15:10:16.661Z,3.10
2023-05-04T15:12:44.023Z,2.95
2023-05-04T15:15:13.059Z,3.40
2023-05-04T15:17:40.223Z,2.85
2023-05-04T15:20:12.033Z,2.90
2023-05-04T15:22:40.372Z,2.60
2023-05-04T15:25:09.149Z,3.10
2023-05-04T15:27:37.320Z,3.03
2023-05-04T15:30:05.212Z,2.70
2023-05-04T15:32:33.650Z,2.95
2023-05-04T15:35:05.434Z,2.70
2023-05-04T15:37:33.807Z,2.80
2023-05-04T15:40:02.531Z,2.70
2023-05-04T15:42:30.589Z,2.60
2023-05-04T15:44:58.193Z,2.50
2023-05-04T15:47:25.706Z,3.03
2023-05-04T15:49:53.133Z,2.65
2023-05-04T15:52:21.556Z,2.63
2023-05-04T15:54:50.142Z,3.00
2023-05-04T15:57:19.469Z,3.17
2023-05-04T15:59:49.943Z,2.72
2023-05-04T16:02:17.727Z,2.50
2023-05-04T16:05:04.704Z,3.10
2023-05-04T16:07:36.782Z,2.65
2023-05-04T16:10:07.171Z,2.60
2023-05-04T16:12:34.650Z,2.90
2023-05-04T16:15:02.005Z,2.40
2023-05-04T16:17:30.883Z,3.47
2023-05-04T16:19:58.347Z,3.08
2023-05-04T16:22:26.800Z,2.83
2023-05-04T16:24:54.397Z,2.92
2023-05-04T16:27:24.369Z,3.13
2023-05-04T16:29:51.840Z,2.67
2023-05-04T16:32:20.752Z,3.67
2023-05-04T16:34:50.340Z,3.03
2023-05-04T16:37:24.400Z,2.88
2023-05-04T16:39:51.921Z,2.78
2023-05-04T16:42:21.519Z,2.60
2023-05-04T16:44:49.320Z,8.15
2023-05-04T16:47:16.817Z,3.08
2023-05-04T16:49:44.456Z,2.55
2023-05-04T16:52:11.729Z,2.60
2023-05-04T16:54:39.204Z,2.15
2023-05-04T16:57:06.750Z,2.70
2023-05-04T16:59:34.178Z,2.72
2023-05-04T17:02:01.620Z,2.53
2023-05-04T17:04:31.430Z,2.60
2023-05-04T17:06:58.515Z,2.85
2023-05-04T17:09:25.681Z,2.78
2023-05-04T17:11:59.048Z,3.10
2023-05-04T17:14:26.653Z,3.50
2023-05-04T17:16:54.418Z,3.25
2023-05-04T17:19:21.603Z,3.72
2023-05-04T17:21:54.482Z,2.90
2023-05-04T17:24:22.558Z,2.80
2023-05-04T17:26:52.037Z,3.35
2023-05-04T17:29:19.504Z,3.08
2023-05-04T17:31:46.948Z,3.15
2023-05-04T17:34:14.404Z,4.70
2023-05-04T17:36:41.833Z,7.97
2023-05-04T17:39:09.299Z,3.55
2023-05-04T17:41:36.847Z,3.20
2023-05-04T17:44:06.353Z,3.15
2023-05-04T17:46:34.931Z,3.45
2023-05-04T17:49:03.318Z,3.05
2023-05-04T17:51:36.610Z,3.40
2023-05-04T17:54:04.093Z,2.70
2023-05-04T17:56:31.322Z,2.92
2023-05-04T17:59:00.790Z,3.08
2023-05-04T18:01:28.385Z,2.80
2023-05-04T18:03:55.860Z,3.15
2023-05-04T18:06:23.351Z,2.90
2023-05-04T18:08:50.710Z,3.90
2023-05-04T18:11:19.127Z,3.45
2023-05-04T18:13:46.513Z,3.40
2023-05-04T18:16:13.851Z,3.40
2023-05-04T18:18:41.452Z,3.72
2023-05-04T18:21:09.249Z,3.15
2023-05-04T18:23:36.786Z,4.63
2023-05-04T18:26:04.384Z,5.78
2023-05-04T18:28:32.502Z,5.50
2023-05-04T18:31:02.190Z,3.42
2023-05-04T18:33:31.670Z,3.60
2023-05-04T18:36:09.390Z,4.20
2023-05-04T18:38:38.333Z,4.70
2023-05-04T18:41:12.271Z,4.40
2023-05-04T18:43:42.134Z,4.07
2023-05-04T18:46:11.101Z,3.97
2023-05-04T18:48:39.646Z,4.88
2023-05-04T18:51:08.841Z,4.63
2023-05-04T18:53:36.490Z,3.88
2023-05-04T18:56:06.660Z,3.47
2023-05-04T18:58:36.327Z,4.35
2023-05-04T19:01:05.673Z,5.38
2023-05-04T19:03:34.012Z,5.50
2023-05-04T19:06:03.595Z,3.90
2023-05-04T19:08:31.072Z,3.88
2023-05-04T19:10:59.625Z,4.05
2023-05-04T19:13:27.392Z,4.10
2023-05-04T19:15:54.556Z,5.82
2023-05-04T19:18:28.220Z,5.68
2023-05-04T19:21:06.469Z,4.90
2023-05-04T19:23:33.695Z,4.40
2023-05-04T19:26:01.502Z,5.80
2023-05-04T19:28:28.714Z,6.93
2023-05-04T19:30:56.211Z,8.82
2023-05-04T19:33:28.160Z,6.82
2023-05-04T19:36:04.556Z,6.38
2023-05-04T19:38:31.867Z,6.75
2023-05-04T19:41:00.363Z,9.85
2023-05-04T19:43:33.947Z,9.25
2023-05-04T19:46:04.427Z,7.93
2023-05-04T19:48:32.121Z,8.82
2023-05-04T19:51:00.401Z,13.02
2023-05-04T19:53:27.762Z,7.32
2023-05-04T19:55:55.701Z,13.73
2023-05-04T19:58:28.615Z,21.67
2023-05-04T20:00:55.881Z,10.10
2023-05-04T20:03:23.347Z,7.35
2023-05-04T20:05:55.846Z,3.88
2023-05-04T20:08:23.332Z,3.88
2023-05-04T20:10:57.971Z,4.47
2023-05-04T20:13:25.953Z,5.15
2023-05-04T20:15:53.395Z,4.85
2023-05-04T20:18:20.863Z,4.97
2023-05-04T20:20:48.235Z,4.40
2023-05-04T20:23:15.849Z,5.43
2023-05-04T20:25:43.204Z,4.80
2023-05-04T20:28:10.952Z,6.15
2023-05-04T20:30:38.102Z,6.07
2023-05-04T20:33:06.678Z,7.18
2023-05-04T20:35:44.560Z,7.10
2023-05-04T20:38:17.890Z,6.70
2023-05-04T20:40:46.367Z,10.55
2023-05-04T20:43:15.118Z,8.82
2023-05-04T20:45:42.360Z,9.85
2023-05-04T20:48:09.803Z,10.15
2023-05-04T20:50:37.252Z,12.27
2023-05-04T20:53:04.649Z,10.82
2023-05-04T20:55:32.259Z,9.90
2023-05-04T20:57:59.552Z,8.15
2023-05-04T21:00:29.197Z,36.17
2023-05-04T21:02:56.637Z,16.02
2023-05-04T21:05:23.997Z,11.07
2023-05-04T21:07:52.796Z,9.75
2023-05-04T21:10:20.365Z,8.00
2023-05-04T21:12:47.956Z,9.35
2023-05-04T21:15:17.851Z,9.43
2023-05-04T21:17:53.521Z,9.00
2023-05-04T21:20:22.331Z,10.57
2023-05-04T21:22:52.001Z,10.93
2023-05-04T21:25:19.624Z,9.40
2023-05-04T21:27:47.997Z,9.00
2023-05-04T21:30:16.648Z,9.93
2023-05-04T21:32:44.018Z,9.73
2023-05-04T21:35:11.563Z,9.23
2023-05-04T21:37:38.822Z,8.93
2023-05-04T21:40:09.246Z,10.50
2023-05-04T21:42:36.791Z,10.13
2023-05-04T21:45:04.608Z,10.02
2023-05-04T21:47:32.732Z,10.00
2023-05-04T21:50:01.249Z,10.10
2023-05-04T21:52:28.693Z,10.88
2023-05-04T21:54:56.169Z,10.07
2023-05-04T21:57:25.648Z,10.05
2023-05-04T21:59:53.130Z,9.68
2023-05-04T22:02:20.703Z,10.18
2023-05-04T22:04:48.168Z,9.60
2023-05-04T22:07:16.009Z,9.48
2023-05-04T22:09:43.468Z,10.23
2023-05-04T22:12:12.051Z,9.80
2023-05-04T22:14:42.581Z,9.48
2023-05-04T22:17:09.930Z,11.48
2023-05-04T22:19:38.664Z,9.40
2023-05-04T22:22:05.847Z,10.20
2023-05-04T22:24:33.271Z,9.98
2023-05-04T22:27:00.773Z,9.50
2023-05-04T22:29:28.162Z,12.30
2023-05-04T22:31:56.171Z,27.23
2023-05-04T22:34:23.665Z,12.20
2023-05-04T22:36:51.136Z,11.57
2023-05-04T22:39:18.553Z,10.80
2023-05-04T22:41:46.090Z,10.27
2023-05-04T22:44:13.442Z,10.27
2023-05-04T22:46:40.996Z,9.85
2023-05-04T22:49:09.383Z,10.88
2023-05-04T22:51:38.328Z,10.85
2023-05-04T22:54:05.975Z,12.18
2023-05-04T22:56:33.475Z,11.80
2023-05-04T22:59:00.793Z,12.07
2023-05-04T23:01:30.375Z,11.35
2023-05-04T23:03:58.901Z,11.27
2023-05-04T23:06:26.207Z,11.85
2023-05-04T23:08:55.664Z,11.60
2023-05-04T23:11:24.213Z,12.00
2023-05-04T23:13:51.718Z,11.50
2023-05-04T23:16:18.979Z,12.07
2023-05-04T23:18:49.114Z,12.30
2023-05-04T23:21:16.537Z,11.70
2023-05-04T23:23:44.124Z,13.13
2023-05-04T23:26:12.662Z,12.43
2023-05-04T23:28:39.996Z,11.73
2023-05-04T23:31:07.492Z,12.60
2023-05-04T23:33:34.930Z,12.00
2023-05-04T23:36:02.333Z,11.95
2023-05-04T23:38:29.802Z,12.27
2023-05-04T23:40:57.307Z,12.63
2023-05-04T23:43:24.886Z,12.40
2023-05-04T23:46:02.679Z,14.10
2023-05-04T23:48:33.065Z,13.35
2023-05-04T23:51:04.868Z,13.05
2023-05-04T23:53:33.957Z,12.73
2023-05-04T23:56:05.347Z,14.43
2023-05-04T23:58:34.807Z,13.05
